X23df,-a — OVJP2 — position and weather

sailwx.info

Track history (hours):
 
Tides and Currents Weather Stations Pressure Air Temp Water Temp Dewpoint Dewpoint Depression Visibility Wind Speed Wind Dir Waves Ship Positions

X23df,-a

Last reported at 2017-Sep-20 21:00 UTC. Time now 2017-Sep-20 23:28 UTC.
Position N 51°14' E 001°46'.

Length 93 m; draft 5.6 m.

Type: Tanker. MMSI: 220397594.

Date/timePositionNaut miles runAvg speedWind from/ knotsBaromVisibWave heightAir tempDewpointWater temp
2017-Sep-20 21:00N 51°14' E 001°46'713.7
2017-Sep-20 20:31N 51°20' E 001°51'713.6
2017-Sep-20 20:01N 51°26' E 001°57'612.9
2017-Sep-20 19:31N 51°31' E 002°03'612.4
2017-Sep-20 19:00N 51°36' E 002°09'611.7
2017-Sep-20 18:30N 51°40' E 002°15'14111.0
2017-Sep-20 05:43N 53°29' E 004°43'210.2
2017-Sep-20 05:30N 53°30' E 004°46'510.0
2017-Sep-20 05:00N 53°32' E 004°54'5 9.6
2017-Sep-20 04:30N 53°33' E 005°01'5 9.8
2017-Sep-20 04:00N 53°35' E 005°09'9411.1
2017-Sep-19 19:35N 54°01' E 007°41'1 9.9
2017-Sep-19 19:29N 54°01' E 007°43'510.4
2017-Sep-19 18:58N 54°01' E 007°52'510.6
2017-Sep-19 18:29N 54°01' E 008°01'711.8
2017-Sep-19 17:52N 53°60' E 008°13'410.9
2017-Sep-19 17:30N 53°60' E 008°20'714.5
2017-Sep-19 17:00N 53°58' E 008°32'714.6
2017-Sep-19 16:30N 53°54' E 008°42'714.6
2017-Sep-19 16:00N 53°51' E 008°53'815.4
2017-Sep-19 15:31N 53°53' E 009°05'612.3
2017-Sep-19 15:00N 53°52' E 009°16'713.0
2017-Sep-19 14:30N 53°48' E 009°23'612.2
2017-Sep-19 14:00N 53°43' E 009°29'510.8
2017-Sep-19 13:31N 53°38' E 009°32'511.0
2017-Sep-19 13:01N 53°34' E 009°40'510.1
2017-Sep-19 12:30N 53°33' E 009°48'4 8.7
2017-Sep-19 12:00N 53°33' E 009°55'2 3.0
2017-Sep-19 11:31N 53°31' E 009°56'0 0.0
2017-Sep-19 10:58N 53°31' E 009°56'0 0.0
2017-Sep-19 10:28N 53°31' E 009°56'0 0.0
2017-Sep-19 09:49N 53°31' E 009°56'0 0.0
2017-Sep-19 09:28N 53°31' E 009°56'0 0.0
2017-Sep-19 08:58N 53°31' E 009°56'0 0.0
2017-Sep-19 08:28N 53°31' E 009°56'0 0.0
2017-Sep-19 07:58N 53°31' E 009°56'0 0.0
2017-Sep-19 07:28N 53°31' E 009°56'0 0.0
2017-Sep-19 06:58N 53°31' E 009°56'0 0.0
2017-Sep-19 06:28N 53°31' E 009°56'0 0.0
2017-Sep-19 05:55N 53°31' E 009°56'0 0.0
2017-Sep-19 05:28N 53°31' E 009°56'0 0.0
2017-Sep-19 04:58N 53°31' E 009°56'0 0.0
2017-Sep-19 04:31N 53°31' E 009°56'0 0.0
2017-Sep-19 04:01N 53°31' E 009°56'0 0.0
2017-Sep-19 03:30N 53°31' E 009°56'0 0.0
2017-Sep-19 03:00N 53°31' E 009°56'0 0.0
2017-Sep-19 02:30N 53°31' E 009°56'0 0.0
2017-Sep-19 02:00N 53°31' E 009°56'0 0.0
2017-Sep-19 01:31N 53°31' E 009°56'0 0.0
2017-Sep-19 01:01N 53°31' E 009°56'0 0.0
2017-Sep-19 00:31N 53°31' E 009°56'0 0.0
2017-Sep-19 00:00N 53°31' E 009°56'0 0.0
2017-Sep-18 23:31N 53°31' E 009°56'0 0.0
2017-Sep-18 23:01N 53°31' E 009°56'0 0.0
2017-Sep-18 22:31N 53°31' E 009°56'0 0.0
2017-Sep-18 22:01N 53°31' E 009°56'0 0.2
2017-Sep-18 21:30N 53°31' E 009°56'4 7.7
2017-Sep-18 21:00N 53°33' E 009°50'4 8.8
2017-Sep-18 20:30N 53°34' E 009°43'611.1
2017-Sep-18 20:01N 53°36' E 009°35'5 9.6
2017-Sep-18 19:30N 53°40' E 009°30'611.3
2017-Sep-18 19:00N 53°45' E 009°25'611.2
2017-Sep-18 18:30N 53°50' E 009°21'510.8
2017-Sep-18 18:00N 53°53' E 009°13'3 5.1
2017-Sep-18 17:30N 53°54' E 009°09'0 0.0
2017-Sep-18 17:01N 53°54' E 009°09'1 1.6
2017-Sep-18 16:30N 53°54' E 009°10'2 3.8
2017-Sep-18 16:00N 53°56' E 009°12'3 6.1
2017-Sep-18 15:30N 53°58' E 009°15'4 7.5
2017-Sep-18 15:00N 54°01' E 009°18'44 5.5
2017-Sep-18 06:57N 54°29' E 010°17'511.0
2017-Sep-18 06:27N 54°32' E 010°25'511.1
2017-Sep-18 06:00N 54°34' E 010°33'611.2
2017-Sep-18 05:28N 54°37' E 010°41'510.9
2017-Sep-18 05:00N 54°40' E 010°49'5 9.9
2017-Sep-18 04:30N 54°44' E 010°52'510.5
2017-Sep-18 04:01N 54°50' E 010°51'510.4
2017-Sep-18 03:30N 54°55' E 010°53'510.6
2017-Sep-18 03:01N 54°59' E 010°60'510.5
2017-Sep-18 02:30N 55°04' E 011°02'611.0
2017-Sep-18 01:59N 55°10' E 011°03'510.5
2017-Sep-18 01:31N 55°14' E 011°05'62 1.9
2017-Sep-16 17:04N 56°09' E 010°13'0 0.0
2017-Sep-16 17:00N 56°09' E 010°13'2 3.3
2017-Sep-16 16:31N 56°09' E 010°16'7310.7
2017-Sep-16 09:40N 56°09' E 012°28'212.4
2017-Sep-16 09:30N 56°08' E 012°31'611.8
2017-Sep-16 09:00N 56°04' E 012°39'611.6
2017-Sep-16 08:30N 55°58' E 012°41'611.6
2017-Sep-16 08:00N 55°52' E 012°41'611.8
2017-Sep-16 07:30N 55°46' E 012°42'612.4
2017-Sep-16 07:00N 55°40' E 012°41'510.7
2017-Sep-16 06:30N 55°35' E 012°42'4 8.1
2017-Sep-16 06:00N 55°31' E 012°43'611.9
2017-Sep-16 05:30N 55°25' E 012°41'612.1
2017-Sep-16 05:00N 55°19' E 012°41'611.3
2017-Sep-16 04:30N 55°17' E 012°50'611.1
2017-Sep-16 04:00N 55°16' E 012°60'611.2
2017-Sep-16 03:30N 55°16' E 013°09'611.5
2017-Sep-16 03:00N 55°15' E 013°20'2511.4
2017-Sep-16 00:49N 55°14' E 014°03'611.2
2017-Sep-16 00:17N 55°14' E 014°14'310.5
2017-Sep-16 00:00N 55°15' E 014°19'611.9
2017-Sep-15 23:30N 55°19' E 014°25'611.5
2017-Sep-15 23:00N 55°24' E 014°32'610.9
2017-Sep-15 22:30N 55°27' E 014°39'510.8
2017-Sep-15 22:00N 55°28' E 014°49'610.9
2017-Sep-15 21:28N 55°29' E 014°59'511.2
2017-Sep-15 21:00N 55°31' E 015°07'611.1
2017-Sep-15 20:30N 55°32' E 015°17'511.0
2017-Sep-15 20:00N 55°33' E 015°26'510.8
2017-Sep-15 19:30N 55°34' E 015°36'510.9
2017-Sep-15 19:00N 55°35' E 015°45'510.7
2017-Sep-15 18:30N 55°35' E 015°55'510.2
2017-Sep-15 18:00N 55°35' E 016°04'510.0
2017-Sep-15 17:30N 55°36' E 016°13'7 8.9
2017-Sep-15 16:40N 55°36' E 016°26'2 7.5
2017-Sep-15 16:28N 55°36' E 016°28'4 7.4
2017-Sep-15 16:00N 55°36' E 016°35'5 7.3
2017-Sep-15 15:19N 55°37' E 016°43'3 7.2
2017-Sep-15 14:54N 55°37' E 016°49'  
2017-Sep-12 15:02N 58°34' E 017°48'011.6
2017-Sep-12 14:59N 58°35' E 017°48'1 3.1
2017-Sep-12 14:31N 58°36' E 017°48'0 0.0
2017-Sep-11 16:22N 58°36' E 017°48'0 0.0
2017-Sep-11 15:55N 58°36' E 017°48'0 0.0
2017-Sep-11 14:52N 58°36' E 017°48'0 0.0
2017-Sep-11 14:22N 58°36' E 017°48'8 4.2
2017-Sep-11 12:33N 58°43' E 017°52'1 7.6
2017-Sep-11 12:28N 58°44' E 017°53'510.5
2017-Sep-11 12:00N 58°48' E 017°58'511.0
2017-Sep-11 11:31N 58°53' E 018°01'2 4.5
2017-Sep-11 11:00N 58°55' E 017°58'  
Track history (hours):
 
Tides and Currents Weather Stations Pressure Air Temp Water Temp Dewpoint Dewpoint Depression Visibility Wind Speed Wind Dir Waves Ship Positions

X23df,-a

Last reported at 2017-Sep-20 21:00 UTC. Time now 2017-Sep-20 23:28 UTC.
Position N 51°14' E 001°46'.

Length 93 m; draft 5.6 m.

Type: Tanker. MMSI: 220397594.

Date/timePositionNaut miles runAvg speedWind from/ knotsBaromVisibWave heightAir tempDewpointWater temp
2017-Sep-20 21:00N 51°14' E 001°46'713.7
2017-Sep-20 20:31N 51°20' E 001°51'713.6
2017-Sep-20 20:01N 51°26' E 001°57'612.9
2017-Sep-20 19:31N 51°31' E 002°03'612.4
2017-Sep-20 19:00N 51°36' E 002°09'611.7
2017-Sep-20 18:30N 51°40' E 002°15'14111.0
2017-Sep-20 05:43N 53°29' E 004°43'210.2
2017-Sep-20 05:30N 53°30' E 004°46'510.0
2017-Sep-20 05:00N 53°32' E 004°54'5 9.6
2017-Sep-20 04:30N 53°33' E 005°01'5 9.8
2017-Sep-20 04:00N 53°35' E 005°09'9411.1
2017-Sep-19 19:35N 54°01' E 007°41'1 9.9
2017-Sep-19 19:29N 54°01' E 007°43'510.4
2017-Sep-19 18:58N 54°01' E 007°52'510.6
2017-Sep-19 18:29N 54°01' E 008°01'711.8
2017-Sep-19 17:52N 53°60' E 008°13'410.9
2017-Sep-19 17:30N 53°60' E 008°20'714.5
2017-Sep-19 17:00N 53°58' E 008°32'714.6
2017-Sep-19 16:30N 53°54' E 008°42'714.6
2017-Sep-19 16:00N 53°51' E 008°53'815.4
2017-Sep-19 15:31N 53°53' E 009°05'612.3
2017-Sep-19 15:00N 53°52' E 009°16'713.0
2017-Sep-19 14:30N 53°48' E 009°23'612.2
2017-Sep-19 14:00N 53°43' E 009°29'510.8
2017-Sep-19 13:31N 53°38' E 009°32'511.0
2017-Sep-19 13:01N 53°34' E 009°40'510.1
2017-Sep-19 12:30N 53°33' E 009°48'4 8.7
2017-Sep-19 12:00N 53°33' E 009°55'2 3.0
2017-Sep-19 11:31N 53°31' E 009°56'0 0.0
2017-Sep-19 10:58N 53°31' E 009°56'0 0.0
2017-Sep-19 10:28N 53°31' E 009°56'0 0.0
2017-Sep-19 09:49N 53°31' E 009°56'0 0.0
2017-Sep-19 09:28N 53°31' E 009°56'0 0.0
2017-Sep-19 08:58N 53°31' E 009°56'0 0.0
2017-Sep-19 08:28N 53°31' E 009°56'0 0.0
2017-Sep-19 07:58N 53°31' E 009°56'0 0.0
2017-Sep-19 07:28N 53°31' E 009°56'0 0.0
2017-Sep-19 06:58N 53°31' E 009°56'0 0.0
2017-Sep-19 06:28N 53°31' E 009°56'0 0.0
2017-Sep-19 05:55N 53°31' E 009°56'0 0.0
2017-Sep-19 05:28N 53°31' E 009°56'0 0.0
2017-Sep-19 04:58N 53°31' E 009°56'0 0.0
2017-Sep-19 04:31N 53°31' E 009°56'0 0.0
2017-Sep-19 04:01N 53°31' E 009°56'0 0.0
2017-Sep-19 03:30N 53°31' E 009°56'0 0.0
2017-Sep-19 03:00N 53°31' E 009°56'0 0.0
2017-Sep-19 02:30N 53°31' E 009°56'0 0.0
2017-Sep-19 02:00N 53°31' E 009°56'0 0.0
2017-Sep-19 01:31N 53°31' E 009°56'0 0.0
2017-Sep-19 01:01N 53°31' E 009°56'0 0.0
2017-Sep-19 00:31N 53°31' E 009°56'0 0.0
2017-Sep-19 00:00N 53°31' E 009°56'0 0.0
2017-Sep-18 23:31N 53°31' E 009°56'0 0.0
2017-Sep-18 23:01N 53°31' E 009°56'0 0.0
2017-Sep-18 22:31N 53°31' E 009°56'0 0.0
2017-Sep-18 22:01N 53°31' E 009°56'0 0.2
2017-Sep-18 21:30N 53°31' E 009°56'4 7.7
2017-Sep-18 21:00N 53°33' E 009°50'4 8.8
2017-Sep-18 20:30N 53°34' E 009°43'611.1
2017-Sep-18 20:01N 53°36' E 009°35'5 9.6
2017-Sep-18 19:30N 53°40' E 009°30'611.3
2017-Sep-18 19:00N 53°45' E 009°25'611.2
2017-Sep-18 18:30N 53°50' E 009°21'510.8
2017-Sep-18 18:00N 53°53' E 009°13'3 5.1
2017-Sep-18 17:30N 53°54' E 009°09'0 0.0
2017-Sep-18 17:01N 53°54' E 009°09'1 1.6
2017-Sep-18 16:30N 53°54' E 009°10'2 3.8
2017-Sep-18 16:00N 53°56' E 009°12'3 6.1
2017-Sep-18 15:30N 53°58' E 009°15'4 7.5
2017-Sep-18 15:00N 54°01' E 009°18'44 5.5
2017-Sep-18 06:57N 54°29' E 010°17'511.0
2017-Sep-18 06:27N 54°32' E 010°25'511.1
2017-Sep-18 06:00N 54°34' E 010°33'611.2
2017-Sep-18 05:28N 54°37' E 010°41'510.9
2017-Sep-18 05:00N 54°40' E 010°49'5 9.9
2017-Sep-18 04:30N 54°44' E 010°52'510.5
2017-Sep-18 04:01N 54°50' E 010°51'510.4
2017-Sep-18 03:30N 54°55' E 010°53'510.6
2017-Sep-18 03:01N 54°59' E 010°60'510.5
2017-Sep-18 02:30N 55°04' E 011°02'611.0
2017-Sep-18 01:59N 55°10' E 011°03'510.5
2017-Sep-18 01:31N 55°14' E 011°05'62 1.9
2017-Sep-16 17:04N 56°09' E 010°13'0 0.0
2017-Sep-16 17:00N 56°09' E 010°13'2 3.3
2017-Sep-16 16:31N 56°09' E 010°16'7310.7
2017-Sep-16 09:40N 56°09' E 012°28'212.4
2017-Sep-16 09:30N 56°08' E 012°31'611.8
2017-Sep-16 09:00N 56°04' E 012°39'611.6
2017-Sep-16 08:30N 55°58' E 012°41'611.6
2017-Sep-16 08:00N 55°52' E 012°41'611.8
2017-Sep-16 07:30N 55°46' E 012°42'612.4
2017-Sep-16 07:00N 55°40' E 012°41'510.7
2017-Sep-16 06:30N 55°35' E 012°42'4 8.1
2017-Sep-16 06:00N 55°31' E 012°43'611.9
2017-Sep-16 05:30N 55°25' E 012°41'612.1
2017-Sep-16 05:00N 55°19' E 012°41'611.3
2017-Sep-16 04:30N 55°17' E 012°50'611.1
2017-Sep-16 04:00N 55°16' E 012°60'611.2
2017-Sep-16 03:30N 55°16' E 013°09'611.5
2017-Sep-16 03:00N 55°15' E 013°20'2511.4
2017-Sep-16 00:49N 55°14' E 014°03'611.2
2017-Sep-16 00:17N 55°14' E 014°14'310.5
2017-Sep-16 00:00N 55°15' E 014°19'611.9
2017-Sep-15 23:30N 55°19' E 014°25'611.5
2017-Sep-15 23:00N 55°24' E 014°32'610.9
2017-Sep-15 22:30N 55°27' E 014°39'510.8
2017-Sep-15 22:00N 55°28' E 014°49'610.9
2017-Sep-15 21:28N 55°29' E 014°59'511.2
2017-Sep-15 21:00N 55°31' E 015°07'611.1
2017-Sep-15 20:30N 55°32' E 015°17'511.0
2017-Sep-15 20:00N 55°33' E 015°26'510.8
2017-Sep-15 19:30N 55°34' E 015°36'510.9
2017-Sep-15 19:00N 55°35' E 015°45'510.7
2017-Sep-15 18:30N 55°35' E 015°55'510.2
2017-Sep-15 18:00N 55°35' E 016°04'510.0
2017-Sep-15 17:30N 55°36' E 016°13'7 8.9
2017-Sep-15 16:40N 55°36' E 016°26'2 7.5
2017-Sep-15 16:28N 55°36' E 016°28'4 7.4
2017-Sep-15 16:00N 55°36' E 016°35'5 7.3
2017-Sep-15 15:19N 55°37' E 016°43'3 7.2
2017-Sep-15 14:54N 55°37' E 016°49'  
2017-Sep-12 15:02N 58°34' E 017°48'011.6
2017-Sep-12 14:59N 58°35' E 017°48'1 3.1
2017-Sep-12 14:31N 58°36' E 017°48'0 0.0
2017-Sep-11 16:22N 58°36' E 017°48'0 0.0
2017-Sep-11 15:55N 58°36' E 017°48'0 0.0
2017-Sep-11 14:52N 58°36' E 017°48'0 0.0
2017-Sep-11 14:22N 58°36' E 017°48'8 4.2
2017-Sep-11 12:33N 58°43' E 017°52'1 7.6
2017-Sep-11 12:28N 58°44' E 017°53'510.5
2017-Sep-11 12:00N 58°48' E 017°58'511.0
2017-Sep-11 11:31N 58°53' E 018°01'2 4.5
2017-Sep-11 11:00N 58°55' E 017°58'  

Dump ship's entire track history